Time;durP1;ratioP1;P1;durP2;ratioP2;P2;SDS_P1;SDS_P2;PMS_P1;PMS_P2;Temp;Humidity;BMP_temperature;BMP_pressure;BME280_temperature;BME280_humidity;BME280_pressure;Samples;Min_cycle;Max_cycle;Signal;HPM_P1;HPM_P2
2022/03/27 00:01:41;;;;;;;5.70;5.18;;;9.80;99.90;;;;;;5040980;28;38676;-77
2022/03/27 00:04:07;;;;;;;7.90;5.60;;;9.80;99.90;;;;;;5042395;27;37712;-75
2022/03/27 00:06:33;;;;;;;6.85;6.20;;;9.80;99.90;;;;;;5042346;28;36303;-75
2022/03/27 00:09:00;;;;;;;5.45;4.95;;;9.80;99.90;;;;;;5047522;28;37638;-76
2022/03/27 00:11:27;;;;;;;5.22;4.72;;;9.90;99.90;;;;;;5041750;28;37506;-76
2022/03/27 00:13:55;;;;;;;5.28;4.80;;;9.80;99.90;;;;;;5032950;28;36732;-76
2022/03/27 00:16:22;;;;;;;5.78;5.28;;;9.80;99.90;;;;;;5042785;27;37322;-75
2022/03/27 00:18:48;;;;;;;6.55;5.88;;;9.80;99.90;;;;;;5029811;28;38594;-75
2022/03/27 00:21:14;;;;;;;6.40;5.80;;;9.80;99.90;;;;;;5031749;27;38281;-76
2022/03/27 00:23:43;;;;;;;6.25;5.65;;;9.80;99.90;;;;;;5035314;27;37350;-75
2022/03/27 00:26:10;;;;;;;6.82;5.35;;;9.80;99.90;;;;;;5026321;28;37224;-76
2022/03/27 00:28:36;;;;;;;5.85;5.35;;;9.80;99.90;;;;;;5030524;28;38914;-75
2022/03/27 00:31:05;;;;;;;5.25;4.75;;;9.90;99.90;;;;;;5033270;27;38406;-75
2022/03/27 00:33:32;;;;;;;7.45;6.75;;;9.90;99.90;;;;;;5065818;27;34717;-76
2022/03/27 00:35:59;;;;;;;6.70;6.13;;;9.90;99.90;;;;;;5031388;28;36209;-76
2022/03/27 00:38:26;;;;;;;8.57;7.57;;;9.90;99.90;;;;;;5038730;28;39297;-76
2022/03/27 00:40:56;;;;;;;7.22;6.53;;;9.90;99.90;;;;;;5035432;28;39118;-76
2022/03/27 00:43:23;;;;;;;8.27;7.57;;;9.80;99.90;;;;;;5030298;28;37610;-76
2022/03/27 00:45:50;;;;;;;8.93;7.05;;;9.90;99.90;;;;;;5016725;28;37131;-75
2022/03/27 00:48:18;;;;;;;9.73;7.45;;;9.90;99.90;;;;;;5027447;28;38378;-75
2022/03/27 00:50:45;;;;;;;7.35;6.65;;;9.90;99.90;;;;;;5034356;28;37164;-76
2022/03/27 00:53:11;;;;;;;6.20;5.60;;;9.90;99.90;;;;;;5044422;27;36423;-76
2022/03/27 00:55:38;;;;;;;6.13;5.50;;;9.80;99.90;;;;;;5041250;28;38226;-76
2022/03/27 00:58:05;;;;;;;5.43;4.93;;;9.80;99.90;;;;;;5059132;27;38801;-75
2022/03/27 01:00:46;;;;;;;5.70;5.10;;;9.80;99.90;;;;;;5045713;28;39190;-75
2022/03/27 01:03:20;;;;;;;5.82;5.28;;;9.80;99.90;;;;;;5051860;27;37543;-76
2022/03/27 01:05:48;;;;;;;5.22;4.68;;;9.80;99.90;;;;;;5043187;28;36127;-76
2022/03/27 01:08:16;;;;;;;6.60;5.43;;;9.70;99.90;;;;;;5038315;27;38188;-76
2022/03/27 01:10:43;;;;;;;6.22;5.63;;;9.60;99.90;;;;;;5069192;27;37561;-75
2022/03/27 01:13:16;;;;;;;6.93;6.27;;;9.60;99.90;;;;;;5073131;27;37676;-76
2022/03/27 01:15:46;;;;;;;9.57;7.57;;;9.60;99.90;;;;;;5029210;28;36571;-76
2022/03/27 01:18:13;;;;;;;7.43;6.73;;;9.50;99.90;;;;;;5036617;27;38243;-75
2022/03/27 01:20:41;;;;;;;8.30;7.50;;;9.50;99.90;;;;;;5038442;28;38284;-76
2022/03/27 01:23:09;;;;;;;7.72;6.97;;;9.50;99.90;;;;;;5038531;27;39236;-76
2022/03/27 01:25:41;;;;;;;7.83;7.13;;;9.50;99.90;;;;;;5034550;28;37538;-76
2022/03/27 01:28:11;;;;;;;8.93;7.77;;;9.50;99.90;;;;;;5040012;27;38629;-76
2022/03/27 01:30:38;;;;;;;10.57;7.67;;;9.50;99.90;;;;;;5039613;27;38584;-76
2022/03/27 01:33:05;;;;;;;10.13;8.98;;;9.50;99.90;;;;;;5044481;27;36955;-76
2022/03/27 01:35:32;;;;;;;9.33;8.33;;;9.50;99.90;;;;;;5039629;28;36665;-76
2022/03/27 01:37:58;;;;;;;9.93;8.43;;;9.50;99.90;;;;;;5039931;27;39267;-76
2022/03/27 01:40:24;;;;;;;9.60;8.65;;;9.60;99.90;;;;;;5043666;28;38077;-76
2022/03/27 01:42:54;;;;;;;9.57;8.38;;;9.50;99.90;;;;;;5059264;28;37612;-76
2022/03/27 01:45:20;;;;;;;8.70;7.90;;;9.50;99.90;;;;;;5050909;28;36241;-76
2022/03/27 01:47:46;;;;;;;9.52;8.52;;;9.50;99.90;;;;;;5059565;28;38377;-76
2022/03/27 01:50:12;;;;;;;9.63;8.70;;;9.60;99.90;;;;;;5053647;28;37181;-76
2022/03/27 01:52:38;;;;;;;9.82;8.82;;;9.60;99.90;;;;;;5058338;28;37564;-76
2022/03/27 01:55:09;;;;;;;12.23;10.48;;;9.60;99.90;;;;;;5055949;28;35961;-76
2022/03/27 01:57:35;;;;;;;10.50;9.00;;;9.60;99.90;;;;;;5040776;28;36770;-76
2022/03/27 02:00:04;;;;;;;11.07;9.77;;;9.60;99.90;;;;;;5045022;28;38393;-75
2022/03/27 02:02:30;;;;;;;11.05;9.82;;;9.60;99.90;;;;;;5036492;28;46949;-76
2022/03/27 02:04:56;;;;;;;11.93;8.50;;;9.60;99.90;;;;;;5052255;28;35754;-75
2022/03/27 02:07:22;;;;;;;9.80;8.80;;;9.50;99.90;;;;;;5040641;27;37569;-75
2022/03/27 02:09:49;;;;;;;11.83;9.07;;;9.50;99.90;;;;;;5037121;28;37565;-76
2022/03/27 02:12:15;;;;;;;10.23;9.20;;;9.50;99.90;;;;;;5039393;28;37611;-76
2022/03/27 02:14:41;;;;;;;9.73;8.37;;;9.40;99.90;;;;;;5036611;28;35933;-76
2022/03/27 02:17:08;;;;;;;10.03;8.90;;;9.40;99.90;;;;;;5039309;28;39526;-76
2022/03/27 02:19:35;;;;;;;10.63;8.53;;;9.40;99.90;;;;;;5037757;28;37837;-76
2022/03/27 02:22:03;;;;;;;10.35;9.25;;;9.40;99.90;;;;;;5039572;27;36948;-76
2022/03/27 02:24:29;;;;;;;11.00;9.83;;;9.50;99.90;;;;;;5042834;28;37012;-76
2022/03/27 02:26:56;;;;;;;12.43;10.03;;;9.50;99.90;;;;;;5040671;28;38785;-75
2022/03/27 02:29:22;;;;;;;14.15;10.57;;;9.50;99.90;;;;;;5042456;28;37004;-76
2022/03/27 02:31:48;;;;;;;11.83;10.43;;;9.50;99.90;;;;;;5041424;28;37924;-76
2022/03/27 02:34:15;;;;;;;11.47;10.33;;;9.50;99.90;;;;;;5043760;28;38482;-76
2022/03/27 02:36:41;;;;;;;13.32;10.60;;;9.50;99.90;;;;;;5040063;28;38871;-75
2022/03/27 02:39:08;;;;;;;12.57;11.27;;;9.40;99.90;;;;;;5042475;28;38805;-75
2022/03/27 02:41:34;;;;;;;12.33;10.57;;;9.30;99.90;;;;;;5042896;28;39579;-76
2022/03/27 02:44:00;;;;;;;11.93;10.60;;;9.20;99.90;;;;;;5040813;28;36367;-76
2022/03/27 02:46:26;;;;;;;10.73;9.30;;;9.20;99.90;;;;;;5040910;28;37531;-76
2022/03/27 02:48:52;;;;;;;12.43;11.03;;;9.10;99.90;;;;;;5040854;28;38296;-76
2022/03/27 02:51:18;;;;;;;14.63;11.20;;;9.10;99.90;;;;;;5039668;28;37472;-76
2022/03/27 02:53:45;;;;;;;14.00;10.87;;;9.10;99.90;;;;;;5028800;28;36523;-76
2022/03/27 02:56:11;;;;;;;13.60;10.87;;;9.10;99.90;;;;;;5042880;28;38588;-75
2022/03/27 02:58:37;;;;;;;14.80;10.73;;;9.10;99.90;;;;;;5039322;28;37562;-76
2022/03/27 03:01:04;;;;;;;14.13;12.10;;;9.00;99.90;;;;;;5036545;28;38905;-76
2022/03/27 03:03:31;;;;;;;15.20;11.80;;;9.00;99.90;;;;;;5044244;28;37645;-75
2022/03/27 03:05:59;;;;;;;16.17;12.73;;;9.00;99.90;;;;;;5037751;28;38987;-76
2022/03/27 03:08:26;;;;;;;14.83;12.93;;;9.00;99.90;;;;;;5035050;28;37770;-75
2022/03/27 03:10:56;;;;;;;15.87;13.07;;;9.00;99.90;;;;;;5041495;28;36856;-76
2022/03/27 03:13:33;;;;;;;19.00;14.33;;;9.00;99.90;;;;;;5042567;28;37992;-75
2022/03/27 03:15:59;;;;;;;17.27;13.97;;;8.90;99.90;;;;;;5034564;28;38166;-76
2022/03/27 03:18:26;;;;;;;15.87;12.43;;;8.90;99.90;;;;;;5035740;28;39078;-75
2022/03/27 03:20:52;;;;;;;14.47;11.70;;;8.90;99.90;;;;;;5038213;28;37884;-76
2022/03/27 03:23:18;;;;;;;14.77;12.80;;;8.80;99.90;;;;;;5035946;28;37726;-75
2022/03/27 03:25:44;;;;;;;16.70;12.57;;;8.70;99.90;;;;;;5036163;28;36583;-76
2022/03/27 03:28:10;;;;;;;13.37;11.87;;;8.60;99.90;;;;;;5034011;28;38823;-76
2022/03/27 03:30:36;;;;;;;14.33;11.60;;;8.70;99.90;;;;;;5035309;28;38349;-76
2022/03/27 03:33:03;;;;;;;14.00;11.70;;;8.60;99.90;;;;;;5036248;28;38284;-76
2022/03/27 03:35:29;;;;;;;16.83;12.80;;;8.70;99.90;;;;;;5048995;28;37558;-76
2022/03/27 03:37:55;;;;;;;15.83;12.27;;;8.70;99.90;;;;;;5054731;28;37524;-76
2022/03/27 03:40:23;;;;;;;15.37;12.00;;;8.60;99.90;;;;;;5034658;28;37521;-76
2022/03/27 03:42:49;;;;;;;15.80;12.13;;;8.60;99.90;;;;;;5037796;28;37422;-76
2022/03/27 03:45:15;;;;;;;16.30;12.70;;;8.50;99.90;;;;;;5034928;28;39854;-76
2022/03/27 03:47:41;;;;;;;14.17;11.37;;;8.50;99.90;;;;;;5037883;28;41669;-76
2022/03/27 03:50:08;;;;;;;14.37;11.27;;;8.40;99.90;;;;;;5036358;28;38070;-76
2022/03/27 03:52:34;;;;;;;12.97;10.17;;;8.40;99.90;;;;;;5052469;28;36630;-76
2022/03/27 03:55:00;;;;;;;13.77;10.20;;;8.30;99.90;;;;;;5040532;28;36836;-76
2022/03/27 03:57:26;;;;;;;12.07;9.93;;;8.20;99.90;;;;;;5036003;28;38397;-76
2022/03/27 03:59:52;;;;;;;14.37;10.07;;;8.10;99.90;;;;;;5038414;28;36776;-76
2022/03/27 04:02:19;;;;;;;13.83;10.40;;;8.10;99.90;;;;;;5031471;28;36322;-76
2022/03/27 04:04:45;;;;;;;11.83;9.70;;;8.00;99.90;;;;;;5035441;28;38707;-76
2022/03/27 04:07:11;;;;;;;15.23;10.87;;;8.00;99.90;;;;;;5035578;28;39050;-76
2022/03/27 04:09:37;;;;;;;17.53;12.53;;;8.00;99.90;;;;;;5042254;28;38826;-78
2022/03/27 04:12:04;;;;;;;16.10;11.77;;;8.00;99.90;;;;;;5037660;28;38368;-78
2022/03/27 04:14:34;;;;;;;15.83;12.10;;;8.00;99.90;;;;;;5036843;28;37952;-78
2022/03/27 04:17:00;;;;;;;19.67;14.23;;;8.00;99.90;;;;;;5036473;28;37481;-78
2022/03/27 04:19:26;;;;;;;22.13;14.73;;;7.90;99.90;;;;;;5044584;28;37094;-78
2022/03/27 04:21:52;;;;;;;22.60;15.93;;;7.90;99.90;;;;;;5057200;27;37144;-78
2022/03/27 04:24:18;;;;;;;23.97;15.73;;;7.90;99.90;;;;;;5085797;27;38032;-78
2022/03/27 04:26:44;;;;;;;24.40;15.57;;;7.90;99.90;;;;;;5057752;28;38594;-75
2022/03/27 04:29:10;;;;;;;24.90;17.23;;;7.90;99.90;;;;;;5047548;27;37674;-76
2022/03/27 04:31:38;;;;;;;23.30;16.57;;;7.90;99.90;;;;;;5051807;28;36664;-78
2022/03/27 04:34:04;;;;;;;24.43;16.20;;;7.90;99.90;;;;;;5083223;27;39264;-78
2022/03/27 04:36:30;;;;;;;24.03;16.90;;;7.90;99.90;;;;;;5050396;27;38044;-78
2022/03/27 04:38:56;;;;;;;25.67;18.37;;;7.90;99.90;;;;;;5061461;28;34226;-78
2022/03/27 04:41:22;;;;;;;24.67;17.47;;;7.90;99.90;;;;;;5062032;27;37430;-78
2022/03/27 04:43:48;;;;;;;23.10;16.57;;;7.90;99.90;;;;;;5055899;27;39111;-78
2022/03/27 04:46:15;;;;;;;26.60;17.73;;;7.80;99.90;;;;;;5059116;28;37299;-78
2022/03/27 04:48:42;;;;;;;28.23;18.90;;;7.90;99.90;;;;;;5050188;27;37959;-78
2022/03/27 04:51:08;;;;;;;23.23;17.33;;;7.80;99.90;;;;;;5045600;28;37421;-78
2022/03/27 04:53:36;;;;;;;25.77;18.30;;;7.80;99.90;;;;;;5052990;28;37561;-78
2022/03/27 04:56:02;;;;;;;23.33;17.03;;;7.80;99.90;;;;;;5083633;27;37151;-78
2022/03/27 04:58:28;;;;;;;27.70;18.47;;;7.70;99.90;;;;;;5050032;28;37355;-78
2022/03/27 05:00:54;;;;;;;26.60;18.63;;;7.70;99.90;;;;;;5053064;28;36340;-78
2022/03/27 05:03:21;;;;;;;29.90;20.13;;;7.80;99.90;;;;;;5050780;28;37906;-78
2022/03/27 05:05:47;;;;;;;25.13;18.40;;;7.80;99.90;;;;;;5052756;28;41053;-78
2022/03/27 05:08:13;;;;;;;28.30;19.17;;;7.80;99.90;;;;;;5043904;28;38204;-78
2022/03/27 05:10:39;;;;;;;27.50;18.93;;;7.80;99.90;;;;;;5048496;28;38343;-78
2022/03/27 05:13:05;;;;;;;26.40;19.20;;;7.80;99.90;;;;;;5048947;28;38083;-78
2022/03/27 05:15:31;;;;;;;26.67;20.10;;;7.80;99.90;;;;;;5051273;28;38476;-78
2022/03/27 05:17:58;;;;;;;32.47;22.17;;;7.80;99.90;;;;;;5048252;28;36785;-78
2022/03/27 05:20:26;;;;;;;30.87;20.33;;;7.90;99.90;;;;;;5043501;27;37470;-78
2022/03/27 05:22:52;;;;;;;28.13;19.60;;;7.90;99.90;;;;;;5078117;27;38103;-78
2022/03/27 05:25:19;;;;;;;28.33;19.97;;;7.90;99.90;;;;;;5053832;27;38746;-78
2022/03/27 05:27:47;;;;;;;26.13;18.47;;;8.00;99.90;;;;;;5059108;28;37448;-78
2022/03/27 05:30:16;;;;;;;26.50;18.40;;;7.90;99.90;;;;;;5054543;27;37560;-78
2022/03/27 05:32:43;;;;;;;25.23;18.37;;;7.90;99.90;;;;;;5053034;28;39148;-78
2022/03/27 05:35:09;;;;;;;24.03;17.93;;;8.00;99.90;;;;;;5055445;27;38712;-78
2022/03/27 05:37:40;;;;;;;24.07;18.23;;;8.00;99.90;;;;;;5056106;27;38542;-78
2022/03/27 05:40:08;;;;;;;26.37;19.83;;;7.90;99.90;;;;;;5057994;28;36717;-78
2022/03/27 05:42:35;;;;;;;25.80;18.40;;;8.00;99.90;;;;;;5085625;27;38827;-78
2022/03/27 05:45:06;;;;;;;23.97;17.10;;;8.00;99.90;;;;;;5061704;28;37777;-78
2022/03/27 05:47:33;;;;;;;25.13;18.90;;;8.10;99.90;;;;;;5061900;28;47223;-76
2022/03/27 05:49:59;;;;;;;25.87;18.70;;;8.10;99.90;;;;;;5059144;27;37101;-76
2022/03/27 05:52:26;;;;;;;25.50;20.10;;;8.10;99.90;;;;;;5057971;28;38875;-76
2022/03/27 05:54:52;;;;;;;25.43;19.13;;;8.10;99.90;;;;;;5060712;27;39135;-77
2022/03/27 05:57:19;;;;;;;29.67;20.53;;;8.10;99.90;;;;;;5052903;27;37436;-78
2022/03/27 05:59:46;;;;;;;25.97;19.93;;;8.10;99.90;;;;;;5051555;28;37448;-78
2022/03/27 06:02:13;;;;;;;24.60;18.87;;;8.10;99.90;;;;;;5039699;28;38077;-78
2022/03/27 06:04:41;;;;;;;24.87;19.40;;;8.00;99.90;;;;;;5038386;28;37949;-77
2022/03/27 06:07:08;;;;;;;25.90;19.07;;;8.00;99.90;;;;;;5036744;28;37912;-76
2022/03/27 06:09:34;;;;;;;24.37;18.60;;;8.00;99.90;;;;;;5038996;28;37379;-76
2022/03/27 06:12:02;;;;;;;27.57;20.87;;;8.00;99.90;;;;;;5040244;28;37905;-76
2022/03/27 06:14:28;;;;;;;26.33;19.67;;;8.10;99.90;;;;;;5037607;28;46994;-73
2022/03/27 06:16:55;;;;;;;28.60;20.73;;;8.00;99.90;;;;;;5041503;28;37544;-76
2022/03/27 06:19:21;;;;;;;25.77;20.10;;;8.10;99.90;;;;;;5036982;28;38352;-74
2022/03/27 06:21:47;;;;;;;25.43;19.43;;;8.10;99.90;;;;;;5042719;28;41997;-74
2022/03/27 06:24:14;;;;;;;26.63;19.37;;;8.10;99.90;;;;;;5052460;28;37494;-76
2022/03/27 06:26:40;;;;;;;25.57;18.70;;;8.20;99.90;;;;;;5051095;28;38466;-73
2022/03/27 06:29:10;;;;;;;21.00;14.43;;;8.10;99.90;;;;;;5048203;27;37020;-77
2022/03/27 06:31:38;;;;;;;16.10;13.07;;;8.10;99.90;;;;;;5042333;28;37809;-77
2022/03/27 06:34:06;;;;;;;17.03;13.10;;;8.00;99.90;;;;;;5039684;28;37786;-77
2022/03/27 06:36:35;;;;;;;17.10;14.00;;;8.00;99.90;;;;;;5038080;28;37984;-76
2022/03/27 06:39:07;;;;;;;19.47;14.53;;;8.00;99.90;;;;;;5043266;28;37176;-76
2022/03/27 06:41:34;;;;;;;18.17;13.60;;;8.00;99.90;;;;;;5065809;28;37815;-77
2022/03/27 06:44:00;;;;;;;16.03;13.30;;;8.00;99.90;;;;;;5051798;28;37510;-76
2022/03/27 06:46:27;;;;;;;16.40;13.57;;;8.00;99.90;;;;;;5057617;28;39287;-76
2022/03/27 06:48:53;;;;;;;16.17;12.20;;;8.00;99.90;;;;;;5055350;27;38075;-76
2022/03/27 06:51:20;;;;;;;16.70;13.53;;;7.90;99.90;;;;;;5060146;27;37606;-75
2022/03/27 06:53:47;;;;;;;15.90;12.53;;;8.00;99.90;;;;;;5091364;27;37660;-77
2022/03/27 06:56:13;;;;;;;18.83;13.50;;;8.00;99.90;;;;;;5058671;28;36970;-76
2022/03/27 06:58:39;;;;;;;15.40;11.97;;;8.00;99.90;;;;;;5062258;28;36494;-76
2022/03/27 07:03:50;;;;;;;15.63;12.73;;;8.10;99.90;;;;;;5060477;27;39901;-77
2022/03/27 07:06:19;;;;;;;15.10;12.20;;;8.10;99.90;;;;;;5064472;27;36821;-74
2022/03/27 07:08:46;;;;;;;16.90;13.47;;;8.20;99.90;;;;;;5061853;27;37407;-75
2022/03/27 07:11:13;;;;;;;14.97;12.70;;;8.20;99.90;;;;;;5063513;27;39666;-75
2022/03/27 07:13:41;;;;;;;16.53;13.07;;;8.10;99.90;;;;;;5065038;27;38710;-75
2022/03/27 07:16:08;;;;;;;15.97;13.57;;;8.20;99.90;;;;;;5068549;27;38145;-77
2022/03/27 07:18:34;;;;;;;16.07;13.23;;;8.20;99.90;;;;;;5066610;28;36292;-75
2022/03/27 07:21:01;;;;;;;16.90;13.03;;;8.30;99.90;;;;;;5068246;27;38579;-75
2022/03/27 07:23:27;;;;;;;15.00;12.43;;;8.40;99.90;;;;;;5064202;27;48596;-74
2022/03/27 07:25:55;;;;;;;18.23;13.80;;;8.40;99.90;;;;;;5066863;27;38040;-74
2022/03/27 07:28:21;;;;;;;13.97;11.37;;;8.40;99.90;;;;;;5066473;28;37480;-76
2022/03/27 07:30:48;;;;;;;16.23;12.77;;;8.50;99.90;;;;;;5064098;27;38537;-74
2022/03/27 07:33:17;;;;;;;16.83;12.90;;;8.60;99.90;;;;;;5067751;27;39045;-75
2022/03/27 07:35:44;;;;;;;15.50;12.17;;;8.60;99.90;;;;;;5066066;28;37777;-74
2022/03/27 07:38:10;;;;;;;15.07;12.47;;;8.60;99.90;;;;;;5056833;27;36642;-74
2022/03/27 07:40:38;;;;;;;13.73;11.67;;;8.70;99.90;;;;;;5058318;28;37473;-74
2022/03/27 07:43:04;;;;;;;14.73;12.13;;;8.70;99.90;;;;;;5055045;28;38174;-74
2022/03/27 07:45:35;;;;;;;12.40;10.97;;;9.00;99.90;;;;;;5055848;28;36683;-74
2022/03/27 07:48:01;;;;;;;13.83;10.80;;;9.20;99.90;;;;;;5061855;27;36116;-74
2022/03/27 07:50:30;;;;;;;14.13;10.23;;;9.20;99.90;;;;;;5058676;28;38410;-75
2022/03/27 07:52:57;;;;;;;12.20;10.50;;;9.20;99.90;;;;;;5091994;27;38495;-74
2022/03/27 07:55:24;;;;;;;11.63;10.03;;;9.10;99.90;;;;;;5059973;27;37026;-74
2022/03/27 07:57:50;;;;;;;14.20;11.57;;;9.20;99.90;;;;;;5060543;28;36870;-74
2022/03/27 08:00:17;;;;;;;12.40;10.82;;;9.20;99.90;;;;;;5059417;27;39394;-75
2022/03/27 08:02:44;;;;;;;13.90;10.83;;;9.20;99.90;;;;;;5067016;28;38076;-75
2022/03/27 08:05:12;;;;;;;12.83;10.77;;;9.20;99.90;;;;;;5062008;28;36984;-76
2022/03/27 08:07:38;;;;;;;12.32;10.15;;;9.30;99.90;;;;;;5069118;28;38467;-75
2022/03/27 08:10:06;;;;;;;11.38;10.18;;;9.30;99.90;;;;;;5063466;28;38568;-73
2022/03/27 08:12:32;;;;;;;12.63;10.57;;;9.40;99.90;;;;;;5061748;27;38843;-76
2022/03/27 08:14:58;;;;;;;11.50;9.97;;;9.60;99.90;;;;;;5064748;28;37858;-75
2022/03/27 08:17:24;;;;;;;13.00;10.13;;;9.60;99.90;;;;;;5061000;27;35958;-76
2022/03/27 08:19:50;;;;;;;12.20;10.52;;;9.80;99.90;;;;;;5063475;28;37702;-75
2022/03/27 08:22:19;;;;;;;11.48;10.15;;;9.80;99.90;;;;;;5054813;28;37155;-76
2022/03/27 08:24:45;;;;;;;12.40;10.50;;;9.80;99.90;;;;;;5065628;28;38540;-76
2022/03/27 08:27:12;;;;;;;12.95;10.38;;;9.80;99.90;;;;;;5070259;28;38279;-76
2022/03/27 08:29:41;;;;;;;11.53;9.87;;;9.90;99.90;;;;;;5062904;28;39700;-76
2022/03/27 08:32:12;;;;;;;11.50;8.50;;;9.90;99.90;;;;;;5054396;28;37370;-77
2022/03/27 08:34:40;;;;;;;10.50;9.10;;;9.80;99.90;;;;;;5062566;27;37607;-76
2022/03/27 08:37:09;;;;;;;9.93;8.37;;;9.50;99.90;;;;;;5056489;28;36733;-75
2022/03/27 08:39:35;;;;;;;10.67;8.47;;;9.50;99.90;;;;;;5057498;28;39827;-75
2022/03/27 08:42:01;;;;;;;10.93;9.77;;;9.70;99.90;;;;;;5061176;28;38022;-76
2022/03/27 08:44:29;;;;;;;10.27;8.30;;;9.70;99.90;;;;;;5058554;28;36725;-78
2022/03/27 08:46:57;;;;;;;10.87;8.57;;;9.70;99.90;;;;;;5059703;28;38261;-76
2022/03/27 08:49:35;;;;;;;10.53;8.00;;;9.60;99.90;;;;;;5073206;28;37507;-76
2022/03/27 08:52:04;;;;;;;11.10;8.70;;;9.70;99.90;;;;;;5056650;28;37225;-75
2022/03/27 08:54:41;;;;;;;10.30;8.13;;;9.80;99.90;;;;;;5074736;27;38945;-75
2022/03/27 08:57:26;;;;;;;9.30;7.87;;;9.80;99.90;;;;;;5061787;28;37033;-77
2022/03/27 08:59:54;;;;;;;9.57;7.83;;;9.80;99.90;;;;;;5054395;28;39566;-76
2022/03/27 09:02:24;;;;;;;10.00;8.30;;;10.00;99.90;;;;;;5057347;28;37127;-77
2022/03/27 09:04:54;;;;;;;9.03;7.90;;;10.10;99.90;;;;;;5063787;28;37354;-77
2022/03/27 09:07:24;;;;;;;9.00;7.87;;;10.10;99.90;;;;;;5058124;27;37282;-77
2022/03/27 09:09:55;;;;;;;9.93;7.97;;;10.30;99.90;;;;;;5064877;28;37800;-77
2022/03/27 09:12:22;;;;;;;11.03;8.80;;;10.40;99.90;;;;;;5064805;27;38289;-76
2022/03/27 09:14:48;;;;;;;10.48;7.80;;;10.50;99.90;;;;;;5074182;28;41039;-77
2022/03/27 09:17:15;;;;;;;8.98;7.45;;;10.70;99.90;;;;;;5057346;27;37208;-77
2022/03/27 09:19:46;;;;;;;8.65;6.85;;;10.90;99.90;;;;;;5061438;28;38838;-76
2022/03/27 09:22:27;;;;;;;9.00;8.05;;;11.20;99.90;;;;;;5059778;27;39593;-76
2022/03/27 09:25:03;;;;;;;8.27;6.97;;;11.20;99.90;;;;;;5053221;28;38173;-77
2022/03/27 09:27:30;;;;;;;8.75;7.43;;;11.30;99.90;;;;;;5050333;27;48393;-76
2022/03/27 09:30:08;;;;;;;7.75;6.95;;;11.40;99.90;;;;;;5057396;28;37703;-75
2022/03/27 09:32:37;;;;;;;8.65;7.20;;;11.40;99.90;;;;;;5057850;28;48841;-74
2022/03/27 09:35:09;;;;;;;8.52;7.13;;;11.40;99.90;;;;;;5041850;27;38312;-74
2022/03/27 09:37:37;;;;;;;8.77;6.95;;;11.50;99.90;;;;;;5043011;28;37508;-75
2022/03/27 09:40:05;;;;;;;8.00;7.03;;;11.70;99.90;;;;;;5045799;28;39438;-78
2022/03/27 09:42:32;;;;;;;8.43;7.18;;;11.90;99.90;;;;;;5039596;28;38569;-79
2022/03/27 09:45:14;;;;;;;8.73;6.75;;;12.20;99.90;;;;;;5039293;28;37718;-78
2022/03/27 09:47:43;;;;;;;8.90;7.07;;;12.20;99.90;;;;;;5058651;28;48071;-78
2022/03/27 09:50:30;;;;;;;8.55;6.82;;;12.40;99.90;;;;;;5064068;28;39337;-79
2022/03/27 09:53:24;;;;;;;9.10;7.07;;;12.40;99.90;;;;;;5066006;28;37680;-79
2022/03/27 09:55:56;;;;;;;9.90;7.13;;;12.30;99.90;;;;;;5056965;28;48421;-80
2022/03/27 09:58:42;;;;;;;7.55;6.68;;;12.50;99.90;;;;;;5059003;27;36830;-79
2022/03/27 10:01:12;;;;;;;9.15;7.50;;;12.60;99.90;;;;;;5062291;28;39115;-79
2022/03/27 10:03:59;;;;;;;7.65;6.07;;;12.80;99.90;;;;;;5064653;28;38268;-79
2022/03/27 10:06:27;;;;;;;7.50;6.45;;;12.90;99.90;;;;;;5070979;28;37131;-78
2022/03/27 10:08:53;;;;;;;8.75;6.10;;;13.10;99.90;;;;;;5061642;27;36287;-79
2022/03/27 10:11:22;;;;;;;7.72;6.22;;;13.30;99.90;;;;;;5061036;27;39720;-79
2022/03/27 10:13:54;;;;;;;6.57;5.75;;;13.50;99.90;;;;;;5063528;28;38542;-75
2022/03/27 10:16:34;;;;;;;7.10;6.15;;;13.50;99.90;;;;;;5070519;27;36774;-79
2022/03/27 10:19:20;;;;;;;8.43;6.88;;;13.60;99.90;;;;;;5062602;28;36097;-79
2022/03/27 10:21:48;;;;;;;6.32;5.68;;;13.80;99.90;;;;;;5062218;28;48015;-78
2022/03/27 10:24:16;;;;;;;6.70;5.95;;;13.90;99.90;;;;;;5060353;28;38747;-81
2022/03/27 10:26:44;;;;;;;7.43;5.32;;;14.00;99.90;;;;;;5098807;27;36809;-82
2022/03/27 10:29:12;;;;;;;7.50;5.47;;;14.10;99.90;;;;;;5063640;27;40028;-80
2022/03/27 10:31:38;;;;;;;6.95;5.53;;;14.20;99.90;;;;;;5061451;27;38542;-75
2022/03/27 10:34:10;;;;;;;7.75;5.68;;;14.30;99.90;;;;;;5045983;28;38457;-82
2022/03/27 10:36:59;;;;;;;9.43;5.47;;;14.30;99.90;;;;;;5085885;28;37159;-80
2022/03/27 10:39:44;;;;;;;6.00;5.32;;;14.60;99.90;;;;;;5058500;27;37035;-82
2022/03/27 10:42:46;;;;;;;6.07;5.30;;;14.70;99.90;;;;;;5064253;28;38440;-80
2022/03/27 10:45:20;;;;;;;6.33;4.93;;;14.60;99.90;;;;;;5070845;27;36951;-80
2022/03/27 10:48:15;;;;;;;5.47;4.57;;;14.60;99.90;;;;;;5066066;28;37422;-81
2022/03/27 10:50:45;;;;;;;5.25;4.75;;;14.70;99.90;;;;;;5063213;28;47983;-83
2022/03/27 10:53:12;;;;;;;6.20;5.18;;;14.80;99.90;;;;;;5086721;27;39073;-82
2022/03/27 10:55:42;;;;;;;5.30;4.80;;;14.80;99.90;;;;;;5072478;28;37336;-82
2022/03/27 10:58:29;;;;;;;6.32;5.22;;;15.10;99.90;;;;;;5068163;27;37952;-82
2022/03/27 11:00:55;;;;;;;5.78;4.25;;;15.20;99.90;;;;;;5046470;28;36232;-81
2022/03/27 11:03:50;;;;;;;6.65;5.13;;;15.40;99.90;;;;;;5047042;28;39373;-83
2022/03/27 11:06:19;;;;;;;5.28;4.70;;;15.70;99.90;;;;;;5053211;28;38693;-81
2022/03/27 11:08:45;;;;;;;5.68;4.70;;;15.90;99.90;;;;;;5061613;28;37798;-82
2022/03/27 11:11:11;;;;;;;5.22;4.35;;;15.80;99.90;;;;;;5057036;28;36254;-76
2022/03/27 11:13:43;;;;;;;6.70;4.97;;;15.80;99.90;;;;;;5050371;28;38806;-74
2022/03/27 11:16:12;;;;;;;6.82;4.97;;;15.90;99.90;;;;;;5048495;28;38734;-77
2022/03/27 11:18:40;;;;;;;5.90;5.18;;;16.00;99.90;;;;;;5054139;27;37597;-76
2022/03/27 11:21:11;;;;;;;5.97;5.38;;;16.20;99.90;;;;;;5069272;27;37628;-75
2022/03/27 11:23:40;;;;;;;7.88;5.10;;;16.30;99.90;;;;;;5057382;28;37148;-78
2022/03/27 11:26:27;;;;;;;5.88;4.78;;;16.20;99.90;;;;;;5058131;27;38087;-79
2022/03/27 11:28:59;;;;;;;6.03;4.72;;;16.40;99.90;;;;;;5056339;28;38487;-80
2022/03/27 11:31:33;;;;;;;5.70;4.47;;;16.20;99.90;;;;;;5050129;28;36901;-83
2022/03/27 11:34:08;;;;;;;4.93;3.83;;;16.20;99.90;;;;;;5086479;27;37827;-82
2022/03/27 11:36:39;;;;;;;6.78;4.55;;;16.20;99.90;;;;;;5058019;28;48545;-83
2022/03/27 11:39:08;;;;;;;5.45;4.32;;;16.40;99.90;;;;;;5054277;28;37164;-80
2022/03/27 11:41:43;;;;;;;4.93;3.70;;;16.40;99.90;;;;;;5057286;28;36863;-81
2022/03/27 11:47:16;;;;;;;4.32;3.45;;;16.40;99.90;;;;;;5055627;28;38983;-77
2022/03/27 11:49:43;;;;;;;4.07;3.58;;;16.50;99.90;;;;;;5054854;28;38031;-76
2022/03/27 11:52:14;;;;;;;6.82;4.13;;;16.50;99.90;;;;;;5054542;27;37199;-79
2022/03/27 11:54:40;;;;;;;4.72;3.95;;;16.70;99.90;;;;;;5044332;28;37404;-76
2022/03/27 11:57:08;;;;;;;5.13;4.13;;;16.80;99.90;;;;;;5052008;28;39078;-75
2022/03/27 11:59:49;;;;;;;4.97;3.65;;;16.80;99.90;;;;;;5037282;28;38027;-76
2022/03/27 12:02:17;;;;;;;6.30;3.47;;;16.90;99.90;;;;;;5055405;27;36053;-75
2022/03/27 12:04:57;;;;;;;4.53;3.60;;;16.90;99.90;;;;;;5053898;28;39012;-76
2022/03/27 12:07:25;;;;;;;5.60;3.42;;;17.10;99.90;;;;;;5052637;27;38377;-80
2022/03/27 12:09:59;;;;;;;5.38;3.72;;;17.20;99.90;;;;;;5055942;28;36726;-77
2022/03/27 12:12:27;;;;;;;6.03;3.58;;;17.40;99.90;;;;;;5050400;27;37996;-77
2022/03/27 12:15:09;;;;;;;4.47;3.40;;;17.50;99.90;;;;;;5074989;27;40001;-75
2022/03/27 12:17:45;;;;;;;7.15;4.13;;;17.60;99.90;;;;;;5053212;28;47648;-76
2022/03/27 12:20:12;;;;;;;4.70;3.33;;;17.50;99.90;;;;;;5053718;27;37794;-78
2022/03/27 12:22:42;;;;;;;6.05;3.72;;;17.30;99.90;;;;;;5059851;28;36390;-77
2022/03/27 12:25:29;;;;;;;4.28;3.72;;;17.20;99.90;;;;;;5054973;27;38195;-78
2022/03/27 12:30:47;;;;;;;5.13;3.13;;;17.40;99.90;;;;;;5057120;27;49938;-79
2022/03/27 12:33:17;;;;;;;5.65;3.65;;;17.40;99.90;;;;;;5055388;28;37476;-78
2022/03/27 12:35:43;;;;;;;4.18;2.58;;;17.50;99.90;;;;;;5048371;28;37499;-79
2022/03/27 12:38:09;;;;;;;6.88;2.92;;;17.20;99.90;;;;;;5058223;27;37364;-77
2022/03/27 12:40:45;;;;;;;3.72;2.67;;;17.40;99.90;;;;;;5060608;27;37960;-79
2022/03/27 12:43:13;;;;;;;4.15;2.80;;;17.80;99.90;;;;;;5041310;28;36695;-78
2022/03/27 12:45:41;;;;;;;5.00;2.45;;;17.90;99.90;;;;;;5055104;28;39722;-78
2022/03/27 12:48:25;;;;;;;3.92;2.67;;;18.20;99.90;;;;;;5058200;27;38237;-85
2022/03/27 12:50:56;;;;;;;4.68;3.30;;;18.00;98.70;;;;;;5055894;28;36743;-82
2022/03/27 12:53:22;;;;;;;5.27;3.67;;;18.00;98.60;;;;;;5084348;27;36234;-80
2022/03/27 12:56:02;;;;;;;5.70;3.20;;;18.00;99.10;;;;;;5062324;28;38862;-79
2022/03/27 12:58:38;;;;;;;4.05;2.90;;;18.40;98.70;;;;;;5038982;27;48965;-78
2022/03/27 13:01:05;;;;;;;3.47;2.50;;;18.70;98.40;;;;;;5032651;28;37802;-79